Time,TemperatureF,DewpointF,PressureIn,WindDirection,WindDirectionDegrees,WindSpeedMPH,WindSpeedGustMPH,Humidity,HourlyPrecipIn,Conditions,Clouds,dailyrainin,SoftwareType,DateUTC
2013-04-18 00:12:00,41.8,39.0,30.48,WSW,245,0.0,0.0,89,0.00,,,0.00,weatherlink.com 1.10,2013-04-18 07:12:00,
2013-04-18 00:27:00,41.6,39.0,30.48,WSW,245,0.0,0.0,90,0.00,,,0.00,weatherlink.com 1.10,2013-04-18 07:27:00,
2013-04-18 00:42:00,41.8,39.0,30.48,WSW,244,0.0,0.0,90,0.00,,,0.00,weatherlink.com 1.10,2013-04-18 07:42:00,
2013-04-18 00:57:00,41.7,39.0,30.48,WSW,244,0.0,0.0,91,0.00,,,0.00,weatherlink.com 1.10,2013-04-18 07:57:00,
2013-04-18 01:12:00,41.6,39.0,30.48,WSW,244,0.0,0.0,91,0.00,,,0.00,weatherlink.com 1.10,2013-04-18 08:12:00,
2013-04-18 01:27:00,41.5,39.0,30.48,WSW,244,0.0,0.0,92,0.00,,,0.00,weatherlink.com 1.10,2013-04-18 08:27:00,
2013-04-18 01:42:00,41.3,39.0,30.48,WSW,244,0.0,0.0,92,0.00,,,0.00,weatherlink.com 1.10,2013-04-18 08:42:00,
2013-04-18 01:57:00,41.2,39.0,30.48,WSW,244,0.0,0.0,93,0.00,,,0.00,weatherlink.com 1.10,2013-04-18 08:57:00,
2013-04-18 02:12:00,41.1,39.0,30.48,WSW,244,0.0,0.0,93,0.00,,,0.00,weatherlink.com 1.10,2013-04-18 09:12:00,
2013-04-18 02:27:00,41.1,39.0,30.48,WSW,244,0.0,0.0,93,0.00,,,0.00,weatherlink.com 1.10,2013-04-18 09:27:00,
2013-04-18 02:42:00,41.2,39.0,30.48,WSW,244,0.0,0.0,93,0.00,,,0.00,weatherlink.com 1.10,2013-04-18 09:42:00,
2013-04-18 02:57:00,41.1,40.0,30.48,WSW,244,0.0,0.0,94,0.00,,,0.00,weatherlink.com 1.10,2013-04-18 09:57:00,
2013-04-18 03:12:00,41.1,40.0,30.48,WSW,244,0.0,0.0,94,0.00,,,0.00,weatherlink.com 1.10,2013-04-18 10:12:00,
2013-04-18 03:27:00,41.1,40.0,30.48,WSW,244,0.0,0.0,94,0.00,,,0.00,weatherlink.com 1.10,2013-04-18 10:27:00,
2013-04-18 03:42:00,41.2,40.0,30.48,WSW,244,0.0,0.0,94,0.00,,,0.00,weatherlink.com 1.10,2013-04-18 10:42:00,
2013-04-18 03:57:00,41.1,40.0,30.48,WSW,244,0.0,0.0,94,0.00,,,0.00,weatherlink.com 1.10,2013-04-18 10:57:00,
2013-04-18 04:12:00,41.2,40.0,30.48,WSW,244,0.0,0.0,95,0.00,,,0.00,weatherlink.com 1.10,2013-04-18 11:12:00,
2013-04-18 04:27:00,41.2,40.0,30.48,WSW,244,0.0,0.0,95,0.00,,,0.00,weatherlink.com 1.10,2013-04-18 11:27:00,
2013-04-18 04:42:00,41.2,40.0,30.48,WSW,244,0.0,0.0,95,0.00,,,0.00,weatherlink.com 1.10,2013-04-18 11:42:00,
2013-04-18 04:57:00,41.2,40.0,30.48,WSW,244,0.0,0.0,95,0.00,,,0.00,weatherlink.com 1.10,2013-04-18 11:57:00,
2013-04-18 05:12:00,41.1,40.0,30.48,WSW,244,0.0,0.0,95,0.00,,,0.00,weatherlink.com 1.10,2013-04-18 12:12:00,
2013-04-18 05:27:00,41.1,40.0,30.48,WSW,244,0.0,0.0,94,0.00,,,0.00,weatherlink.com 1.10,2013-04-18 12:27:00,
2013-04-18 05:42:00,41.1,40.0,30.47,WSW,244,0.0,0.0,94,0.00,,,0.00,weatherlink.com 1.10,2013-04-18 12:42:00,
2013-04-18 05:57:00,41.1,40.0,30.47,WSW,244,0.0,0.0,95,0.00,,,0.00,weatherlink.com 1.10,2013-04-18 12:57:00,
2013-04-18 06:12:00,40.9,40.0,30.47,WSW,244,0.0,0.0,95,0.00,,,0.00,weatherlink.com 1.10,2013-04-18 13:12:00,
2013-04-18 06:27:00,40.7,40.0,30.47,WSW,244,0.0,0.0,96,0.00,,,0.00,weatherlink.com 1.10,2013-04-18 13:27:00,
2013-04-18 06:42:00,40.7,40.0,30.47,WSW,244,0.0,0.0,96,0.00,,,0.00,weatherlink.com 1.10,2013-04-18 13:42:00,
2013-04-18 06:57:00,40.9,40.0,30.48,WSW,244,0.0,0.0,97,0.00,,,0.00,weatherlink.com 1.10,2013-04-18 13:57:00,
2013-04-18 07:12:00,41.1,40.0,30.48,WSW,244,0.0,0.0,97,0.00,,,0.00,weatherlink.com 1.10,2013-04-18 14:12:00,
2013-04-18 07:27:00,41.5,41.0,30.48,WSW,245,0.0,0.0,97,0.00,,,0.00,weatherlink.com 1.10,2013-04-18 14:27:00,
2013-04-18 07:42:00,41.7,41.0,30.48,WSW,244,0.0,0.0,96,0.00,,,0.00,weatherlink.com 1.10,2013-04-18 14:42:00,
2013-04-18 07:57:00,42.1,41.0,30.48,WSW,244,0.0,0.0,95,0.00,,,0.00,weatherlink.com 1.10,2013-04-18 14:57:00,
2013-04-18 08:12:00,42.5,41.0,30.48,WSW,246,0.0,0.0,95,0.00,,,0.00,weatherlink.com 1.10,2013-04-18 15:12:00,
2013-04-18 08:27:00,43.1,42.0,30.49,WNW,288,0.0,0.0,94,0.00,,,0.00,weatherlink.com 1.10,2013-04-18 15:27:00,
2013-04-18 08:42:00,43.7,42.0,30.49,NE,44,0.0,0.0,94,0.00,,,0.00,weatherlink.com 1.10,2013-04-18 15:42:00,
2013-04-18 08:57:00,44.3,42.0,30.49,NNW,347,0.0,0.0,92,0.00,,,0.00,weatherlink.com 1.10,2013-04-18 15:57:00,
2013-04-18 09:12:00,44.7,42.0,30.49,NNE,20,0.0,0.0,91,0.00,,,0.00,weatherlink.com 1.10,2013-04-18 16:12:00,
2013-04-18 09:27:00,44.8,42.0,30.49,NE,51,0.0,0.0,90,0.00,,,0.00,weatherlink.com 1.10,2013-04-18 16:27:00,
2013-04-18 09:42:00,45.1,42.0,30.49,WSW,244,0.0,1.0,90,0.00,,,0.00,weatherlink.com 1.10,2013-04-18 16:42:00,
2013-04-18 09:57:00,45.6,43.0,30.49,East,97,0.0,1.0,89,0.00,,,0.00,weatherlink.com 1.10,2013-04-18 16:57:00,
2013-04-18 10:13:00,46.5,43.0,30.49,NE,47,0.0,0.0,87,0.00,,,0.00,weatherlink.com 1.10,2013-04-18 17:13:00,
2013-04-18 10:28:00,47.2,44.0,30.49,SW,219,0.0,1.0,88,0.00,,,0.00,weatherlink.com 1.10,2013-04-18 17:28:00,
2013-04-18 10:43:00,48.0,43.0,30.49,SW,233,0.0,0.0,83,0.00,,,0.00,weatherlink.com 1.10,2013-04-18 17:43:00,
2013-04-18 10:58:00,47.9,43.0,30.49,East,79,0.0,0.0,83,0.00,,,0.00,weatherlink.com 1.10,2013-04-18 17:58:00,
2013-04-18 11:13:00,49.1,44.0,30.49,ESE,110,0.0,0.0,82,0.00,,,0.00,weatherlink.com 1.10,2013-04-18 18:13:00,
2013-04-18 11:28:00,49.8,43.0,30.48,South,184,0.0,1.0,78,0.00,,,0.00,weatherlink.com 1.10,2013-04-18 18:28:00,
2013-04-18 11:43:00,49.8,44.0,30.48,SW,217,0.0,3.0,81,0.00,,,0.00,weatherlink.com 1.10,2013-04-18 18:43:00,
2013-04-18 11:58:00,50.9,44.0,30.48,WSW,240,0.0,3.0,78,0.00,,,0.00,weatherlink.com 1.10,2013-04-18 18:58:00,
2013-04-18 12:13:00,51.7,44.0,30.47,West,262,1.0,3.0,75,0.00,,,0.00,weatherlink.com 1.10,2013-04-18 19:13:00,
2013-04-18 12:28:00,52.2,45.0,30.46,WSW,238,0.0,4.0,76,0.00,,,0.00,weatherlink.com 1.10,2013-04-18 19:28:00,
2013-04-18 12:43:00,52.3,44.0,30.46,SW,217,0.0,4.0,73,0.00,,,0.00,weatherlink.com 1.10,2013-04-18 19:43:00,
2013-04-18 12:58:00,51.9,43.0,30.45,SSE,150,0.0,1.0,73,0.00,,,0.00,weatherlink.com 1.10,2013-04-18 19:58:00,
2013-04-18 13:13:00,52.1,44.0,30.45,SW,219,1.0,3.0,73,0.00,,,0.00,weatherlink.com 1.10,2013-04-18 20:13:00,
2013-04-18 13:28:00,52.4,44.0,30.45,SSW,213,0.0,4.0,72,0.00,,,0.00,weatherlink.com 1.10,2013-04-18 20:28:00,
2013-04-18 13:43:00,52.6,44.0,30.45,SE,125,0.0,9.0,73,0.00,,,0.00,weatherlink.com 1.10,2013-04-18 20:43:00,
2013-04-18 13:58:00,52.4,45.0,30.44,East,86,0.0,5.0,76,0.00,,,0.00,weatherlink.com 1.10,2013-04-18 20:58:00,
2013-04-18 14:13:00,52.6,45.0,30.44,SW,226,0.0,3.0,74,0.00,,,0.00,weatherlink.com 1.10,2013-04-18 21:13:00,
2013-04-18 14:28:00,52.4,44.0,30.44,WSW,248,0.0,3.0,74,0.00,,,0.00,weatherlink.com 1.10,2013-04-18 21:28:00,
2013-04-18 14:58:00,52.2,44.0,30.43,SW,233,0.0,5.0,74,0.00,,,0.00,weatherlink.com 1.10,2013-04-18 21:58:00,
2013-04-18 15:13:00,52.2,45.0,30.42,West,263,0.0,3.0,77,0.00,,,0.00,weatherlink.com 1.10,2013-04-18 22:13:00,
2013-04-18 15:28:00,51.8,46.0,30.41,South,186,0.0,3.0,79,0.00,,,0.00,weatherlink.com 1.10,2013-04-18 22:28:00,
2013-04-18 15:43:00,51.5,46.0,30.41,SSW,199,0.0,3.0,80,0.00,,,0.00,weatherlink.com 1.10,2013-04-18 22:43:00,
2013-04-18 15:58:00,51.2,46.0,30.40,SSW,207,0.0,0.0,82,0.00,,,0.00,weatherlink.com 1.10,2013-04-18 22:58:00,
2013-04-18 16:13:00,51.4,46.0,30.40,WNW,299,0.0,0.0,82,0.00,,,0.00,weatherlink.com 1.10,2013-04-18 23:13:00,
2013-04-18 16:28:00,51.6,46.0,30.40,NW,307,0.0,0.0,81,0.00,,,0.00,weatherlink.com 1.10,2013-04-18 23:28:00,
2013-04-18 16:43:00,51.3,46.0,30.40,SW,231,0.0,5.0,82,0.00,,,0.00,weatherlink.com 1.10,2013-04-18 23:43:00,
2013-04-18 16:58:00,51.0,47.0,30.39,SW,216,0.0,3.0,85,0.00,,,0.00,weatherlink.com 1.10,2013-04-18 23:58:00,
2013-04-18 17:13:00,50.9,47.0,30.39,SSW,211,0.0,2.0,86,0.00,,,0.00,weatherlink.com 1.10,2013-04-19 00:13:00,
2013-04-18 17:28:00,50.1,47.0,30.39,SSW,210,0.0,4.0,89,0.00,,,0.00,weatherlink.com 1.10,2013-04-19 00:28:00,
2013-04-18 17:44:00,49.6,47.0,30.39,West,271,0.0,0.0,92,0.01,,,0.01,weatherlink.com 1.10,2013-04-19 00:44:00,
2013-04-18 17:59:00,49.4,48.0,30.39,WNW,284,0.0,0.0,93,0.02,,,0.02,weatherlink.com 1.10,2013-04-19 00:59:00,
2013-04-18 18:14:00,49.0,47.0,30.39,WSW,243,0.0,0.0,93,0.03,,,0.03,weatherlink.com 1.10,2013-04-19 01:14:00,
2013-04-18 18:29:00,49.0,47.0,30.38,WSW,243,0.0,0.0,94,0.02,,,0.03,weatherlink.com 1.10,2013-04-19 01:29:00,
2013-04-18 18:44:00,49.1,48.0,30.38,WSW,243,0.0,0.0,94,0.02,,,0.03,weatherlink.com 1.10,2013-04-19 01:44:00,
2013-04-18 18:59:00,48.7,47.0,30.37,WSW,243,0.0,0.0,95,0.03,,,0.05,weatherlink.com 1.10,2013-04-19 01:59:00,
2013-04-18 19:14:00,48.5,48.0,30.37,WSW,243,0.0,0.0,96,0.02,,,0.05,weatherlink.com 1.10,2013-04-19 02:14:00,
2013-04-18 19:29:00,48.2,47.0,30.36,East,81,0.0,0.0,96,0.03,,,0.06,weatherlink.com 1.10,2013-04-19 02:29:00,
2013-04-18 19:44:00,48.0,47.0,30.35,NE,40,0.0,0.0,96,0.04,,,0.07,weatherlink.com 1.10,2013-04-19 02:44:00,
2013-04-18 19:59:00,47.9,47.0,30.35,ENE,58,0.0,0.0,97,0.02,,,0.07,weatherlink.com 1.10,2013-04-19 02:59:00,
2013-04-18 20:14:00,47.8,47.0,30.35,South,171,0.0,0.0,97,0.02,,,0.07,weatherlink.com 1.10,2013-04-19 03:14:00,
2013-04-18 20:29:00,47.9,47.0,30.34,ENE,68,0.0,0.0,97,0.02,,,0.08,weatherlink.com 1.10,2013-04-19 03:29:00,
2013-04-18 20:44:00,47.8,47.0,30.34,East,83,0.0,0.0,97,0.01,,,0.08,weatherlink.com 1.10,2013-04-19 03:44:00,
2013-04-18 20:59:00,47.7,47.0,30.34,ENE,60,0.0,0.0,97,0.01,,,0.08,weatherlink.com 1.10,2013-04-19 03:59:00,
2013-04-18 21:14:00,47.7,47.0,30.34,SW,217,0.0,0.0,97,0.01,,,0.08,weatherlink.com 1.10,2013-04-19 04:14:00,
2013-04-18 21:29:00,47.6,47.0,30.34,SE,132,0.0,0.0,97,0.00,,,0.08,weatherlink.com 1.10,2013-04-19 04:29:00,
2013-04-18 21:44:00,47.5,47.0,30.34,ESE,107,0.0,0.0,97,0.00,,,0.08,weatherlink.com 1.10,2013-04-19 04:44:00,
2013-04-18 21:59:00,47.5,47.0,30.34,SW,222,0.0,0.0,97,0.00,,,0.08,weatherlink.com 1.10,2013-04-19 04:59:00,
2013-04-18 22:14:00,47.4,47.0,30.32,SW,224,0.0,0.0,97,0.00,,,0.08,weatherlink.com 1.10,2013-04-19 05:14:00,
2013-04-18 22:29:00,47.3,47.0,30.32,SSW,198,0.0,4.0,97,0.00,,,0.08,weatherlink.com 1.10,2013-04-19 05:29:00,
2013-04-18 22:44:00,47.2,46.0,30.32,SE,132,0.0,0.0,97,0.00,,,0.08,weatherlink.com 1.10,2013-04-19 05:44:00,
2013-04-18 22:59:00,47.1,46.0,30.31,North,351,0.0,0.0,97,0.00,,,0.08,weatherlink.com 1.10,2013-04-19 05:59:00,
2013-04-18 23:14:00,47.0,46.0,30.30,NNW,346,0.0,1.0,97,0.00,,,0.08,weatherlink.com 1.10,2013-04-19 06:14:00,
2013-04-18 23:29:00,47.0,47.0,30.30,ENE,63,0.0,1.0,98,0.00,,,0.08,weatherlink.com 1.10,2013-04-19 06:29:00,
2013-04-18 23:44:00,47.1,47.0,30.29,WSW,252,0.0,0.0,98,0.00,,,0.08,weatherlink.com 1.10,2013-04-19 06:44:00,
2013-04-18 23:59:00,47.1,47.0,30.29,SSW,199,0.0,1.0,98,0.00,,,0.08,weatherlink.com 1.10,2013-04-19 06:59:00,